Praia, Cape Verde
Current Conditions -  °F | °C
As of 1:00 PM on Tuesday 27 Jan 2015 (Local Time) from GVNP Reporting Station
Haze Haze  
Wind Chill: 75°   Ceiling: Unl
Heat Index: 75°   Visibility: 2.4mi
Dew Point: 63°   Wind: 18mph
Humidity: 65%   Direction: 30°NNE
Pressure: 30.06"   Gusts: NA
Location:  14.93°N, 23.54°W
Report Text: GVNP 271400Z 03016KT 3900 HZ NSC 24/17 Q1018 NOSIG
Loading
Personal Weather Stations






























Interactive Weather Map New forecast layout! Learn more

10-Day Weather Forecast

Advertisements
Track Severe Weather on mobile